Vinegar Bend, Alabama
Current Conditions -  °F | °C
As of 2:56 AM on Wednesday 28 Jan 2015 (Local Time) from KMOB Reporting Station
Clear Clear  
Wind Chill: 39°   Ceiling: Unl
Heat Index: 43°   Visibility: 10mi
Dew Point: 34°   Wind: 6mph
Humidity: 71%   Direction: 350°N
Pressure: 30.19"   Gusts: NA
Location:  31.26°N, 88.34°W
Report Text: KMOB 280856Z AUTO 35005KT 10SM CLR 06/01 A3019 RMK AO2 SLP221 T00610011 53005
Loading
Personal Weather Stations






























Interactive Weather Map New forecast layout! Learn more

10-Day Weather Forecast

Advertisements
Track Severe Weather on mobile